Date,TemperatureHighF,TemperatureAvgF,TemperatureLowF,DewpointHighF,DewpointAvgF,DewpointLowF,HumidityHigh,HumidityAvg,HumidityLow,PressureMaxIn,PressureMinIn,WindSpeedMaxMPH,WindSpeedAvgMPH,GustSpeedMaxMPH,PrecipitationSumIn
2013-2-1,47.0,42.7,39.0,40.0,37.0,33.0,93,81,73,29.83,29.41,0,-999,0,0.00
2013-2-2,43.0,40.7,38.0,35.0,31.8,29.0,79,70,57,30.26,29.86,0,-999,0,0.00
2013-2-3,49.0,46.9,40.0,48.0,44.5,34.0,99,91,80,30.12,29.72,0,-999,0,0.00
2013-2-4,49.0,42.5,35.0,48.0,35.6,31.0,96,77,58,29.79,29.48,0,-999,0,0.00
2013-2-5,45.0,39.7,33.0,44.0,36.0,31.0,100,86,74,29.61,29.16,0,-999,0,0.00
2013-2-6,43.0,41.9,40.0,37.0,32.6,29.0,78,69,60,30.23,29.66,0,-999,0,0.00
2013-2-7,42.0,39.9,37.0,40.0,36.3,32.0,97,86,74,30.26,30.03,0,-999,0,0.00
2013-2-8,46.0,43.5,41.0,45.0,39.2,35.0,100,85,71,30.27,30.10,0,-999,0,0.00
2013-2-9,46.0,43.6,39.0,46.0,43.6,39.0,100,100,97,30.15,29.77,0,-999,0,0.00
2013-2-10,44.0,40.9,38.0,44.0,40.3,36.0,100,98,91,29.73,29.21,0,-999,0,0.00
2013-2-11,41.0,39.2,37.0,36.0,30.2,27.0,90,70,62,29.88,29.39,0,-999,0,0.00
2013-2-12,40.0,39.0,38.0,31.0,30.0,28.0,75,69,65,30.03,29.98,0,-999,0,0.00
2013-2-18,44.0,42.0,40.0,40.0,37.0,32.0,90,82,73,30.13,30.02,0,-999,0,0.00
2013-2-19,45.0,41.3,38.0,43.0,38.1,33.0,100,88,72,30.14,30.04,0,-999,0,0.00
2013-2-20,42.0,40.5,39.0,39.0,37.0,32.0,96,87,76,30.21,30.06,0,-999,0,0.00
2013-2-21,38.0,36.7,33.0,31.0,28.1,25.0,82,70,62,30.27,30.15,0,-999,0,0.00
2013-2-22,38.0,36.1,33.0,27.0,24.3,22.0,69,62,54,30.31,30.19,0,-999,0,0.00
2013-2-23,39.0,36.5,34.0,31.0,25.4,22.0,83,63,51,30.39,30.27,0,-999,0,0.00
2013-2-24,42.0,39.4,37.0,34.0,30.4,26.0,79,70,57,30.48,30.38,0,-999,0,0.00
2013-2-25,44.0,39.8,34.0,38.0,33.1,30.0,89,76,60,30.62,30.49,0,-999,0,0.00
2013-2-26,44.0,39.7,36.0,35.0,32.6,28.0,82,75,68,30.65,30.58,0,-999,0,0.00
2013-2-27,42.0,41.5,41.0,37.0,37.0,37.0,86,84,83,30.71,30.70,0,-999,0,0.00
2013-2-28,47.0,45.2,40.0,45.0,42.4,40.0,99,90,77,30.59,30.50,0,-999,0,0.00